sensor_id;sensor_type;location;lat;lon;timestamp;P1;durP1;ratioP1;P2;durP2;ratioP2
50789;SDS011;37287;47.554;7.844;2023-04-22T00:02:23;8.32;;;5.38;;
50789;SDS011;37287;47.554;7.844;2023-04-22T00:04:50;5.97;;;5.10;;
50789;SDS011;37287;47.554;7.844;2023-04-22T00:07:17;5.50;;;4.80;;
50789;SDS011;37287;47.554;7.844;2023-04-22T00:09:45;6.38;;;4.88;;
50789;SDS011;37287;47.554;7.844;2023-04-22T00:12:12;5.70;;;4.85;;
50789;SDS011;37287;47.554;7.844;2023-04-22T00:14:38;4.75;;;4.18;;
50789;SDS011;37287;47.554;7.844;2023-04-22T00:17:05;8.25;;;5.43;;
50789;SDS011;37287;47.554;7.844;2023-04-22T00:19:32;7.88;;;5.30;;
50789;SDS011;37287;47.554;7.844;2023-04-22T00:22:02;7.38;;;5.10;;
50789;SDS011;37287;47.554;7.844;2023-04-22T00:24:29;7.93;;;6.85;;
50789;SDS011;37287;47.554;7.844;2023-04-22T00:26:56;10.10;;;8.73;;
50789;SDS011;37287;47.554;7.844;2023-04-22T00:29:23;8.07;;;7.00;;
50789;SDS011;37287;47.554;7.844;2023-04-22T00:31:52;9.57;;;7.75;;
50789;SDS011;37287;47.554;7.844;2023-04-22T00:34:19;11.38;;;8.13;;
50789;SDS011;37287;47.554;7.844;2023-04-22T00:36:45;10.05;;;6.90;;
50789;SDS011;37287;47.554;7.844;2023-04-22T00:39:18;8.32;;;7.10;;
50789;SDS011;37287;47.554;7.844;2023-04-22T00:41:45;8.40;;;7.45;;
50789;SDS011;37287;47.554;7.844;2023-04-22T00:44:12;8.23;;;7.05;;
50789;SDS011;37287;47.554;7.844;2023-04-22T00:46:40;10.65;;;8.40;;
50789;SDS011;37287;47.554;7.844;2023-04-22T00:49:07;10.73;;;8.75;;
50789;SDS011;37287;47.554;7.844;2023-04-22T00:51:34;10.93;;;8.55;;
50789;SDS011;37287;47.554;7.844;2023-04-22T00:54:00;8.45;;;7.43;;
50789;SDS011;37287;47.554;7.844;2023-04-22T00:56:28;12.00;;;9.15;;
50789;SDS011;37287;47.554;7.844;2023-04-22T00:58:57;11.23;;;9.43;;
50789;SDS011;37287;47.554;7.844;2023-04-22T01:06:42;11.70;;;9.85;;
50789;SDS011;37287;47.554;7.844;2023-04-22T01:09:09;11.70;;;9.98;;
50789;SDS011;37287;47.554;7.844;2023-04-22T01:11:35;12.52;;;10.35;;
50789;SDS011;37287;47.554;7.844;2023-04-22T01:14:02;10.95;;;9.75;;
50789;SDS011;37287;47.554;7.844;2023-04-22T01:16:31;15.63;;;9.80;;
50789;SDS011;37287;47.554;7.844;2023-04-22T01:19:00;13.85;;;11.07;;
50789;SDS011;37287;47.554;7.844;2023-04-22T01:21:27;14.57;;;11.50;;
50789;SDS011;37287;47.554;7.844;2023-04-22T01:23:56;15.93;;;11.45;;
50789;SDS011;37287;47.554;7.844;2023-04-22T01:26:26;13.70;;;10.45;;
50789;SDS011;37287;47.554;7.844;2023-04-22T01:28:53;12.48;;;10.40;;
50789;SDS011;37287;47.554;7.844;2023-04-22T01:31:21;13.65;;;10.88;;
50789;SDS011;37287;47.554;7.844;2023-04-22T01:33:48;12.60;;;10.05;;
50789;SDS011;37287;47.554;7.844;2023-04-22T01:36:15;12.52;;;10.77;;
50789;SDS011;37287;47.554;7.844;2023-04-22T01:38:44;15.13;;;11.43;;
50789;SDS011;37287;47.554;7.844;2023-04-22T01:41:12;11.73;;;10.32;;
50789;SDS011;37287;47.554;7.844;2023-04-22T01:43:38;9.60;;;8.45;;
50789;SDS011;37287;47.554;7.844;2023-04-22T01:46:07;8.82;;;7.72;;
50789;SDS011;37287;47.554;7.844;2023-04-22T01:48:34;9.43;;;7.88;;
50789;SDS011;37287;47.554;7.844;2023-04-22T01:51:01;8.43;;;6.70;;
50789;SDS011;37287;47.554;7.844;2023-04-22T01:53:30;11.07;;;8.38;;
50789;SDS011;37287;47.554;7.844;2023-04-22T01:55:56;9.25;;;7.47;;
50789;SDS011;37287;47.554;7.844;2023-04-22T01:58:27;11.73;;;8.10;;
50789;SDS011;37287;47.554;7.844;2023-04-22T02:00:57;12.02;;;8.73;;
50789;SDS011;37287;47.554;7.844;2023-04-22T02:03:23;10.02;;;7.18;;
50789;SDS011;37287;47.554;7.844;2023-04-22T02:05:50;7.63;;;6.68;;
50789;SDS011;37287;47.554;7.844;2023-04-22T02:08:23;7.68;;;6.43;;
50789;SDS011;37287;47.554;7.844;2023-04-22T02:10:49;9.00;;;7.05;;
50789;SDS011;37287;47.554;7.844;2023-04-22T02:13:16;7.70;;;6.82;;
50789;SDS011;37287;47.554;7.844;2023-04-22T02:15:43;10.10;;;7.22;;
50789;SDS011;37287;47.554;7.844;2023-04-22T02:18:09;9.77;;;6.80;;
50789;SDS011;37287;47.554;7.844;2023-04-22T02:20:36;9.13;;;6.60;;
50789;SDS011;37287;47.554;7.844;2023-04-22T02:23:04;8.43;;;7.43;;
50789;SDS011;37287;47.554;7.844;2023-04-22T02:25:31;8.82;;;6.50;;
50789;SDS011;37287;47.554;7.844;2023-04-22T02:27:58;11.88;;;6.55;;
50789;SDS011;37287;47.554;7.844;2023-04-22T02:30:37;7.47;;;6.07;;
50789;SDS011;37287;47.554;7.844;2023-04-22T02:33:04;8.80;;;7.05;;
50789;SDS011;37287;47.554;7.844;2023-04-22T02:35:31;8.48;;;6.43;;
50789;SDS011;37287;47.554;7.844;2023-04-22T02:37:59;8.10;;;7.10;;
50789;SDS011;37287;47.554;7.844;2023-04-22T02:40:26;9.93;;;8.15;;
50789;SDS011;37287;47.554;7.844;2023-04-22T02:42:53;9.77;;;8.50;;
50789;SDS011;37287;47.554;7.844;2023-04-22T02:45:19;10.68;;;8.02;;
50789;SDS011;37287;47.554;7.844;2023-04-22T02:47:46;10.93;;;8.85;;
50789;SDS011;37287;47.554;7.844;2023-04-22T02:50:12;11.32;;;9.20;;
50789;SDS011;37287;47.554;7.844;2023-04-22T02:52:47;13.30;;;10.98;;
50789;SDS011;37287;47.554;7.844;2023-04-22T02:55:14;11.18;;;10.00;;
50789;SDS011;37287;47.554;7.844;2023-04-22T02:57:41;17.33;;;10.75;;
50789;SDS011;37287;47.554;7.844;2023-04-22T03:00:08;13.85;;;10.77;;
50789;SDS011;37287;47.554;7.844;2023-04-22T03:02:37;12.48;;;10.68;;
50789;SDS011;37287;47.554;7.844;2023-04-22T03:05:04;15.95;;;12.30;;
50789;SDS011;37287;47.554;7.844;2023-04-22T03:07:33;20.35;;;13.25;;
50789;SDS011;37287;47.554;7.844;2023-04-22T03:10:00;16.23;;;12.07;;
50789;SDS011;37287;47.554;7.844;2023-04-22T03:12:27;12.75;;;10.73;;
50789;SDS011;37287;47.554;7.844;2023-04-22T03:14:53;18.15;;;13.65;;
50789;SDS011;37287;47.554;7.844;2023-04-22T03:17:22;11.80;;;10.23;;
50789;SDS011;37287;47.554;7.844;2023-04-22T03:19:51;16.27;;;12.23;;
50789;SDS011;37287;47.554;7.844;2023-04-22T03:22:17;18.27;;;12.85;;
50789;SDS011;37287;47.554;7.844;2023-04-22T03:24:46;15.13;;;12.02;;
50789;SDS011;37287;47.554;7.844;2023-04-22T03:27:12;19.80;;;13.05;;
50789;SDS011;37287;47.554;7.844;2023-04-22T03:29:39;18.77;;;13.18;;
50789;SDS011;37287;47.554;7.844;2023-04-22T03:32:08;24.83;;;12.85;;
50789;SDS011;37287;47.554;7.844;2023-04-22T03:34:34;17.60;;;12.02;;
50789;SDS011;37287;47.554;7.844;2023-04-22T03:37:02;14.75;;;10.82;;
50789;SDS011;37287;47.554;7.844;2023-04-22T03:39:29;16.33;;;11.45;;
50789;SDS011;37287;47.554;7.844;2023-04-22T03:41:56;16.52;;;12.63;;
50789;SDS011;37287;47.554;7.844;2023-04-22T03:44:28;14.73;;;11.15;;
50789;SDS011;37287;47.554;7.844;2023-04-22T03:46:54;15.25;;;11.98;;
50789;SDS011;37287;47.554;7.844;2023-04-22T03:49:22;14.68;;;12.20;;
50789;SDS011;37287;47.554;7.844;2023-04-22T03:51:48;14.10;;;11.43;;
50789;SDS011;37287;47.554;7.844;2023-04-22T03:54:19;14.52;;;12.05;;
50789;SDS011;37287;47.554;7.844;2023-04-22T03:56:46;14.50;;;10.77;;
50789;SDS011;37287;47.554;7.844;2023-04-22T03:59:12;14.05;;;10.48;;
50789;SDS011;37287;47.554;7.844;2023-04-22T04:01:39;17.17;;;12.90;;
50789;SDS011;37287;47.554;7.844;2023-04-22T04:04:06;14.70;;;11.52;;
50789;SDS011;37287;47.554;7.844;2023-04-22T04:06:33;16.30;;;12.13;;
50789;SDS011;37287;47.554;7.844;2023-04-22T04:09:00;14.50;;;11.40;;
50789;SDS011;37287;47.554;7.844;2023-04-22T04:11:32;17.25;;;13.32;;
50789;SDS011;37287;47.554;7.844;2023-04-22T04:13:59;17.48;;;13.02;;
50789;SDS011;37287;47.554;7.844;2023-04-22T04:16:33;20.80;;;13.10;;
50789;SDS011;37287;47.554;7.844;2023-04-22T04:19:02;16.00;;;12.18;;
50789;SDS011;37287;47.554;7.844;2023-04-22T04:21:31;17.38;;;11.90;;
50789;SDS011;37287;47.554;7.844;2023-04-22T04:23:58;15.73;;;12.63;;
50789;SDS011;37287;47.554;7.844;2023-04-22T04:26:25;16.08;;;11.20;;
50789;SDS011;37287;47.554;7.844;2023-04-22T04:28:55;13.38;;;10.27;;
50789;SDS011;37287;47.554;7.844;2023-04-22T04:31:23;11.55;;;9.73;;
50789;SDS011;37287;47.554;7.844;2023-04-22T04:33:50;14.45;;;11.27;;
50789;SDS011;37287;47.554;7.844;2023-04-22T04:36:17;15.10;;;11.90;;
50789;SDS011;37287;47.554;7.844;2023-04-22T04:38:45;14.07;;;10.88;;
50789;SDS011;37287;47.554;7.844;2023-04-22T04:41:12;14.55;;;10.90;;
50789;SDS011;37287;47.554;7.844;2023-04-22T04:43:39;15.10;;;11.45;;
50789;SDS011;37287;47.554;7.844;2023-04-22T04:46:07;16.02;;;12.55;;
50789;SDS011;37287;47.554;7.844;2023-04-22T04:48:34;18.52;;;12.55;;
50789;SDS011;37287;47.554;7.844;2023-04-22T04:51:01;18.98;;;13.18;;
50789;SDS011;37287;47.554;7.844;2023-04-22T04:53:31;17.85;;;12.98;;
50789;SDS011;37287;47.554;7.844;2023-04-22T04:55:57;17.42;;;12.45;;
50789;SDS011;37287;47.554;7.844;2023-04-22T04:58:24;19.38;;;13.60;;
50789;SDS011;37287;47.554;7.844;2023-04-22T05:00:52;19.40;;;13.32;;
50789;SDS011;37287;47.554;7.844;2023-04-22T05:03:19;21.63;;;14.30;;
50789;SDS011;37287;47.554;7.844;2023-04-22T05:05:46;19.17;;;13.90;;
50789;SDS011;37287;47.554;7.844;2023-04-22T05:08:14;16.50;;;12.57;;
50789;SDS011;37287;47.554;7.844;2023-04-22T05:10:40;16.10;;;12.55;;
50789;SDS011;37287;47.554;7.844;2023-04-22T05:13:07;16.90;;;11.82;;
50789;SDS011;37287;47.554;7.844;2023-04-22T05:15:39;14.60;;;11.27;;
50789;SDS011;37287;47.554;7.844;2023-04-22T05:18:06;16.30;;;10.90;;
50789;SDS011;37287;47.554;7.844;2023-04-22T05:20:33;12.20;;;9.68;;
50789;SDS011;37287;47.554;7.844;2023-04-22T05:23:01;11.82;;;9.00;;
50789;SDS011;37287;47.554;7.844;2023-04-22T05:25:28;11.23;;;8.73;;
50789;SDS011;37287;47.554;7.844;2023-04-22T05:27:56;9.73;;;7.72;;
50789;SDS011;37287;47.554;7.844;2023-04-22T05:30:25;11.52;;;8.20;;
50789;SDS011;37287;47.554;7.844;2023-04-22T05:32:52;9.25;;;7.85;;
50789;SDS011;37287;47.554;7.844;2023-04-22T05:35:19;9.00;;;7.82;;
50789;SDS011;37287;47.554;7.844;2023-04-22T05:37:45;11.65;;;8.30;;
50789;SDS011;37287;47.554;7.844;2023-04-22T05:40:12;9.40;;;7.72;;
50789;SDS011;37287;47.554;7.844;2023-04-22T05:42:38;8.13;;;6.65;;
50789;SDS011;37287;47.554;7.844;2023-04-22T05:45:05;10.60;;;8.20;;
50789;SDS011;37287;47.554;7.844;2023-04-22T05:47:32;7.50;;;6.75;;
50789;SDS011;37287;47.554;7.844;2023-04-22T05:50:01;9.52;;;6.93;;
50789;SDS011;37287;47.554;7.844;2023-04-22T05:52:29;9.10;;;7.28;;
50789;SDS011;37287;47.554;7.844;2023-04-22T05:54:56;10.18;;;8.50;;
50789;SDS011;37287;47.554;7.844;2023-04-22T05:57:22;14.52;;;7.60;;
50789;SDS011;37287;47.554;7.844;2023-04-22T05:59:49;11.55;;;7.43;;
50789;SDS011;37287;47.554;7.844;2023-04-22T06:02:20;10.93;;;8.30;;
50789;SDS011;37287;47.554;7.844;2023-04-22T06:04:46;9.57;;;8.38;;
50789;SDS011;37287;47.554;7.844;2023-04-22T06:07:14;11.15;;;8.77;;
50789;SDS011;37287;47.554;7.844;2023-04-22T06:09:42;11.57;;;9.65;;
50789;SDS011;37287;47.554;7.844;2023-04-22T06:12:09;8.85;;;7.90;;
50789;SDS011;37287;47.554;7.844;2023-04-22T06:14:36;11.77;;;9.10;;
50789;SDS011;37287;47.554;7.844;2023-04-22T06:17:02;13.35;;;9.75;;
50789;SDS011;37287;47.554;7.844;2023-04-22T06:19:29;12.77;;;9.85;;
50789;SDS011;37287;47.554;7.844;2023-04-22T06:21:56;13.25;;;10.40;;
50789;SDS011;37287;47.554;7.844;2023-04-22T06:24:22;14.60;;;12.45;;
50789;SDS011;37287;47.554;7.844;2023-04-22T06:26:49;14.02;;;10.75;;
50789;SDS011;37287;47.554;7.844;2023-04-22T06:29:16;13.80;;;11.73;;
50789;SDS011;37287;47.554;7.844;2023-04-22T06:31:42;13.27;;;10.45;;
50789;SDS011;37287;47.554;7.844;2023-04-22T06:34:09;14.68;;;11.20;;
50789;SDS011;37287;47.554;7.844;2023-04-22T06:36:39;15.15;;;11.10;;
50789;SDS011;37287;47.554;7.844;2023-04-22T06:39:06;11.35;;;9.45;;
50789;SDS011;37287;47.554;7.844;2023-04-22T06:41:32;12.57;;;9.63;;
50789;SDS011;37287;47.554;7.844;2023-04-22T06:44:07;15.20;;;11.93;;
50789;SDS011;37287;47.554;7.844;2023-04-22T06:46:33;12.43;;;10.25;;
50789;SDS011;37287;47.554;7.844;2023-04-22T06:49:00;13.70;;;12.23;;
50789;SDS011;37287;47.554;7.844;2023-04-22T06:51:33;12.93;;;10.93;;
50789;SDS011;37287;47.554;7.844;2023-04-22T06:53:59;13.18;;;11.25;;
50789;SDS011;37287;47.554;7.844;2023-04-22T06:56:26;11.57;;;9.20;;
50789;SDS011;37287;47.554;7.844;2023-04-22T06:58:59;13.23;;;10.48;;
50789;SDS011;37287;47.554;7.844;2023-04-22T07:01:25;12.05;;;10.52;;
50789;SDS011;37287;47.554;7.844;2023-04-22T07:03:52;13.00;;;10.13;;
50789;SDS011;37287;47.554;7.844;2023-04-22T07:06:19;12.18;;;9.68;;
50789;SDS011;37287;47.554;7.844;2023-04-22T07:08:47;14.10;;;10.63;;
50789;SDS011;37287;47.554;7.844;2023-04-22T07:11:14;11.60;;;9.75;;
50789;SDS011;37287;47.554;7.844;2023-04-22T07:13:40;11.73;;;9.52;;
50789;SDS011;37287;47.554;7.844;2023-04-22T07:16:07;10.82;;;9.57;;
50789;SDS011;37287;47.554;7.844;2023-04-22T07:18:33;12.13;;;9.38;;
50789;SDS011;37287;47.554;7.844;2023-04-22T07:21:05;12.93;;;10.30;;
50789;SDS011;37287;47.554;7.844;2023-04-22T07:23:32;11.30;;;9.25;;
50789;SDS011;37287;47.554;7.844;2023-04-22T07:25:58;8.93;;;8.02;;
50789;SDS011;37287;47.554;7.844;2023-04-22T07:28:25;10.32;;;8.18;;
50789;SDS011;37287;47.554;7.844;2023-04-22T07:30:52;10.48;;;7.70;;
50789;SDS011;37287;47.554;7.844;2023-04-22T07:33:20;9.50;;;7.40;;
50789;SDS011;37287;47.554;7.844;2023-04-22T07:35:47;7.07;;;6.38;;
50789;SDS011;37287;47.554;7.844;2023-04-22T07:38:14;8.35;;;6.65;;
50789;SDS011;37287;47.554;7.844;2023-04-22T07:40:40;7.05;;;6.32;;
50789;SDS011;37287;47.554;7.844;2023-04-22T07:43:07;7.85;;;6.70;;
50789;SDS011;37287;47.554;7.844;2023-04-22T07:45:36;6.70;;;6.00;;
50789;SDS011;37287;47.554;7.844;2023-04-22T07:48:03;8.40;;;6.18;;
50789;SDS011;37287;47.554;7.844;2023-04-22T07:50:31;8.48;;;6.57;;
50789;SDS011;37287;47.554;7.844;2023-04-22T07:52:58;8.00;;;6.25;;
50789;SDS011;37287;47.554;7.844;2023-04-22T07:55:24;11.52;;;6.95;;
50789;SDS011;37287;47.554;7.844;2023-04-22T07:57:53;10.02;;;6.35;;
50789;SDS011;37287;47.554;7.844;2023-04-22T08:00:20;7.35;;;6.25;;
50789;SDS011;37287;47.554;7.844;2023-04-22T08:02:46;11.38;;;6.45;;
50789;SDS011;37287;47.554;7.844;2023-04-22T08:05:13;10.70;;;8.98;;
50789;SDS011;37287;47.554;7.844;2023-04-22T08:07:40;9.70;;;8.02;;
50789;SDS011;37287;47.554;7.844;2023-04-22T08:10:07;10.30;;;7.43;;
50789;SDS011;37287;47.554;7.844;2023-04-22T08:12:38;7.85;;;6.90;;
50789;SDS011;37287;47.554;7.844;2023-04-22T08:15:05;6.85;;;5.80;;
50789;SDS011;37287;47.554;7.844;2023-04-22T08:17:32;6.78;;;6.05;;
50789;SDS011;37287;47.554;7.844;2023-04-22T08:19:58;5.65;;;5.10;;
50789;SDS011;37287;47.554;7.844;2023-04-22T08:22:25;4.63;;;4.15;;
50789;SDS011;37287;47.554;7.844;2023-04-22T08:24:58;4.90;;;4.40;;
50789;SDS011;37287;47.554;7.844;2023-04-22T08:27:26;5.18;;;3.80;;
50789;SDS011;37287;47.554;7.844;2023-04-22T08:29:52;4.55;;;3.95;;
50789;SDS011;37287;47.554;7.844;2023-04-22T08:32:19;4.72;;;3.60;;
50789;SDS011;37287;47.554;7.844;2023-04-22T08:34:47;4.22;;;3.83;;
50789;SDS011;37287;47.554;7.844;2023-04-22T08:37:17;4.95;;;3.90;;
50789;SDS011;37287;47.554;7.844;2023-04-22T08:39:43;6.63;;;4.00;;
50789;SDS011;37287;47.554;7.844;2023-04-22T08:42:11;3.63;;;3.33;;
50789;SDS011;37287;47.554;7.844;2023-04-22T08:44:38;3.50;;;3.20;;
50789;SDS011;37287;47.554;7.844;2023-04-22T08:47:04;4.40;;;3.83;;
50789;SDS011;37287;47.554;7.844;2023-04-22T08:49:37;6.15;;;4.15;;
50789;SDS011;37287;47.554;7.844;2023-04-22T08:52:05;4.25;;;3.80;;
50789;SDS011;37287;47.554;7.844;2023-04-22T08:54:31;6.07;;;5.25;;
50789;SDS011;37287;47.554;7.844;2023-04-22T08:57:01;4.97;;;4.30;;
50789;SDS011;37287;47.554;7.844;2023-04-22T08:59:28;9.55;;;4.20;;
50789;SDS011;37287;47.554;7.844;2023-04-22T09:01:57;6.15;;;5.13;;
50789;SDS011;37287;47.554;7.844;2023-04-22T09:04:24;7.13;;;4.80;;
50789;SDS011;37287;47.554;7.844;2023-04-22T09:06:51;8.40;;;5.15;;
50789;SDS011;37287;47.554;7.844;2023-04-22T09:09:18;5.88;;;5.32;;
50789;SDS011;37287;47.554;7.844;2023-04-22T09:11:44;7.45;;;5.55;;
50789;SDS011;37287;47.554;7.844;2023-04-22T09:14:14;7.70;;;5.00;;
50789;SDS011;37287;47.554;7.844;2023-04-22T09:16:46;5.72;;;4.95;;
50789;SDS011;37287;47.554;7.844;2023-04-22T09:19:13;5.47;;;4.57;;
50789;SDS011;37287;47.554;7.844;2023-04-22T09:21:40;6.00;;;5.10;;
50789;SDS011;37287;47.554;7.844;2023-04-22T09:24:07;5.03;;;4.28;;
50789;SDS011;37287;47.554;7.844;2023-04-22T09:29:13;5.50;;;4.80;;
50789;SDS011;37287;47.554;7.844;2023-04-22T09:31:41;4.95;;;4.45;;
50789;SDS011;37287;47.554;7.844;2023-04-22T09:34:09;4.47;;;4.07;;
50789;SDS011;37287;47.554;7.844;2023-04-22T09:36:36;4.90;;;3.38;;
50789;SDS011;37287;47.554;7.844;2023-04-22T09:39:04;4.90;;;3.53;;
50789;SDS011;37287;47.554;7.844;2023-04-22T09:41:35;3.58;;;3.05;;
50789;SDS011;37287;47.554;7.844;2023-04-22T09:44:04;3.17;;;2.88;;
50789;SDS011;37287;47.554;7.844;2023-04-22T09:46:35;4.78;;;3.28;;
50789;SDS011;37287;47.554;7.844;2023-04-22T09:49:07;5.47;;;2.65;;
50789;SDS011;37287;47.554;7.844;2023-04-22T09:51:33;3.83;;;3.20;;
50789;SDS011;37287;47.554;7.844;2023-04-22T09:54:01;3.88;;;3.33;;
50789;SDS011;37287;47.554;7.844;2023-04-22T09:56:49;4.47;;;3.70;;
50789;SDS011;37287;47.554;7.844;2023-04-22T09:59:27;3.85;;;3.38;;
50789;SDS011;37287;47.554;7.844;2023-04-22T10:01:59;9.60;;;4.03;;
50789;SDS011;37287;47.554;7.844;2023-04-22T10:04:29;4.90;;;4.05;;
50789;SDS011;37287;47.554;7.844;2023-04-22T10:06:56;7.38;;;4.32;;
50789;SDS011;37287;47.554;7.844;2023-04-22T10:09:25;5.13;;;4.35;;
50789;SDS011;37287;47.554;7.844;2023-04-22T10:11:52;6.20;;;4.22;;
50789;SDS011;37287;47.554;7.844;2023-04-22T10:14:21;4.63;;;4.00;;
50789;SDS011;37287;47.554;7.844;2023-04-22T10:16:49;4.35;;;3.70;;
50789;SDS011;37287;47.554;7.844;2023-04-22T10:19:20;5.25;;;4.10;;
50789;SDS011;37287;47.554;7.844;2023-04-22T10:21:49;5.78;;;4.82;;
50789;SDS011;37287;47.554;7.844;2023-04-22T10:24:18;6.60;;;4.30;;
50789;SDS011;37287;47.554;7.844;2023-04-22T10:29:17;6.43;;;5.80;;
50789;SDS011;37287;47.554;7.844;2023-04-22T10:31:55;6.55;;;5.13;;
50789;SDS011;37287;47.554;7.844;2023-04-22T10:34:29;5.20;;;4.50;;
50789;SDS011;37287;47.554;7.844;2023-04-22T10:37:08;5.47;;;4.57;;
50789;SDS011;37287;47.554;7.844;2023-04-22T10:39:37;6.00;;;4.60;;
50789;SDS011;37287;47.554;7.844;2023-04-22T10:42:10;6.28;;;5.68;;
50789;SDS011;37287;47.554;7.844;2023-04-22T10:44:48;7.95;;;5.35;;
50789;SDS011;37287;47.554;7.844;2023-04-22T10:47:36;6.72;;;4.82;;
50789;SDS011;37287;47.554;7.844;2023-04-22T10:52:38;5.15;;;4.15;;
50789;SDS011;37287;47.554;7.844;2023-04-22T10:55:07;4.25;;;3.83;;
50789;SDS011;37287;47.554;7.844;2023-04-22T10:57:38;10.07;;;3.95;;
50789;SDS011;37287;47.554;7.844;2023-04-22T11:00:20;4.40;;;3.65;;
50789;SDS011;37287;47.554;7.844;2023-04-22T11:02:53;4.28;;;3.42;;
50789;SDS011;37287;47.554;7.844;2023-04-22T11:05:43;6.03;;;4.57;;
50789;SDS011;37287;47.554;7.844;2023-04-22T11:10:43;4.68;;;3.63;;
50789;SDS011;37287;47.554;7.844;2023-04-22T11:13:13;5.53;;;4.30;;
50789;SDS011;37287;47.554;7.844;2023-04-22T11:15:43;7.22;;;4.97;;
50789;SDS011;37287;47.554;7.844;2023-04-22T11:18:22;5.60;;;4.82;;
50789;SDS011;37287;47.554;7.844;2023-04-22T11:20:50;8.50;;;6.38;;
50789;SDS011;37287;47.554;7.844;2023-04-22T11:23:23;6.70;;;5.15;;
50789;SDS011;37287;47.554;7.844;2023-04-22T11:26:01;5.28;;;4.47;;
50789;SDS011;37287;47.554;7.844;2023-04-22T11:28:31;5.95;;;4.93;;
50789;SDS011;37287;47.554;7.844;2023-04-22T11:31:05;5.07;;;4.35;;
50789;SDS011;37287;47.554;7.844;2023-04-22T11:33:36;4.57;;;4.07;;
50789;SDS011;37287;47.554;7.844;2023-04-22T11:36:09;6.72;;;4.57;;
50789;SDS011;37287;47.554;7.844;2023-04-22T11:38:37;6.93;;;5.13;;
50789;SDS011;37287;47.554;7.844;2023-04-22T11:41:05;7.43;;;5.70;;
50789;SDS011;37287;47.554;7.844;2023-04-22T11:43:32;8.25;;;6.50;;
50789;SDS011;37287;47.554;7.844;2023-04-22T11:45:59;7.40;;;5.75;;
50789;SDS011;37287;47.554;7.844;2023-04-22T11:48:25;5.43;;;4.82;;
50789;SDS011;37287;47.554;7.844;2023-04-22T11:51:12;9.70;;;4.75;;
50789;SDS011;37287;47.554;7.844;2023-04-22T11:53:48;4.80;;;3.78;;
50789;SDS011;37287;47.554;7.844;2023-04-22T11:56:15;4.50;;;3.80;;
50789;SDS011;37287;47.554;7.844;2023-04-22T11:58:42;6.82;;;3.72;;
50789;SDS011;37287;47.554;7.844;2023-04-22T12:01:11;3.22;;;2.90;;
50789;SDS011;37287;47.554;7.844;2023-04-22T12:03:38;3.33;;;2.53;;
50789;SDS011;37287;47.554;7.844;2023-04-22T12:06:05;2.75;;;2.42;;
50789;SDS011;37287;47.554;7.844;2023-04-22T12:08:35;3.72;;;3.08;;
50789;SDS011;37287;47.554;7.844;2023-04-22T12:11:07;3.53;;;3.03;;
50789;SDS011;37287;47.554;7.844;2023-04-22T12:16:03;4.95;;;3.60;;
50789;SDS011;37287;47.554;7.844;2023-04-22T12:18:49;4.15;;;3.58;;
50789;SDS011;37287;47.554;7.844;2023-04-22T12:21:20;4.55;;;3.85;;
50789;SDS011;37287;47.554;7.844;2023-04-22T12:23:54;4.38;;;3.63;;
50789;SDS011;37287;47.554;7.844;2023-04-22T12:26:22;4.18;;;3.78;;
50789;SDS011;37287;47.554;7.844;2023-04-22T12:28:53;5.22;;;3.92;;
50789;SDS011;37287;47.554;7.844;2023-04-22T12:31:21;5.50;;;4.55;;
50789;SDS011;37287;47.554;7.844;2023-04-22T12:36:23;5.32;;;4.03;;
50789;SDS011;37287;47.554;7.844;2023-04-22T12:38:50;4.57;;;3.72;;
50789;SDS011;37287;47.554;7.844;2023-04-22T12:41:18;4.45;;;3.75;;
50789;SDS011;37287;47.554;7.844;2023-04-22T12:43:45;4.45;;;3.70;;
50789;SDS011;37287;47.554;7.844;2023-04-22T12:46:15;6.50;;;3.92;;
50789;SDS011;37287;47.554;7.844;2023-04-22T12:48:43;3.92;;;3.28;;
50789;SDS011;37287;47.554;7.844;2023-04-22T12:51:10;3.38;;;2.63;;
50789;SDS011;37287;47.554;7.844;2023-04-22T12:53:36;4.30;;;3.08;;
50789;SDS011;37287;47.554;7.844;2023-04-22T12:56:08;3.88;;;3.20;;
50789;SDS011;37287;47.554;7.844;2023-04-22T12:58:38;4.95;;;2.97;;
50789;SDS011;37287;47.554;7.844;2023-04-22T13:01:05;3.72;;;2.70;;
50789;SDS011;37287;47.554;7.844;2023-04-22T13:03:32;4.55;;;2.53;;
50789;SDS011;37287;47.554;7.844;2023-04-22T13:05:58;3.22;;;2.70;;
50789;SDS011;37287;47.554;7.844;2023-04-22T13:08:25;2.55;;;2.35;;
50789;SDS011;37287;47.554;7.844;2023-04-22T13:10:58;2.20;;;2.00;;
50789;SDS011;37287;47.554;7.844;2023-04-22T13:13:25;2.97;;;2.15;;
50789;SDS011;37287;47.554;7.844;2023-04-22T13:15:51;3.17;;;2.30;;
50789;SDS011;37287;47.554;7.844;2023-04-22T13:18:20;2.40;;;2.20;;
50789;SDS011;37287;47.554;7.844;2023-04-22T13:20:47;2.50;;;2.17;;
50789;SDS011;37287;47.554;7.844;2023-04-22T13:23:20;2.50;;;1.98;;
50789;SDS011;37287;47.554;7.844;2023-04-22T13:25:49;3.28;;;2.17;;
50789;SDS011;37287;47.554;7.844;2023-04-22T13:28:21;2.90;;;2.10;;
50789;SDS011;37287;47.554;7.844;2023-04-22T13:30:48;3.45;;;2.45;;
50789;SDS011;37287;47.554;7.844;2023-04-22T13:33:14;1.80;;;1.70;;
50789;SDS011;37287;47.554;7.844;2023-04-22T13:35:41;2.40;;;2.20;;
50789;SDS011;37287;47.554;7.844;2023-04-22T13:38:08;3.65;;;2.10;;
50789;SDS011;37287;47.554;7.844;2023-04-22T13:40:36;2.00;;;1.90;;
50789;SDS011;37287;47.554;7.844;2023-04-22T13:43:03;2.55;;;1.80;;
50789;SDS011;37287;47.554;7.844;2023-04-22T13:45:29;3.15;;;1.45;;
50789;SDS011;37287;47.554;7.844;2023-04-22T13:47:58;2.70;;;2.00;;
50789;SDS011;37287;47.554;7.844;2023-04-22T13:50:25;2.35;;;1.80;;
50789;SDS011;37287;47.554;7.844;2023-04-22T13:52:54;2.65;;;2.05;;
50789;SDS011;37287;47.554;7.844;2023-04-22T13:55:22;3.53;;;1.77;;
50789;SDS011;37287;47.554;7.844;2023-04-22T13:57:49;3.10;;;1.90;;
50789;SDS011;37287;47.554;7.844;2023-04-22T14:00:17;2.65;;;1.60;;
50789;SDS011;37287;47.554;7.844;2023-04-22T14:02:45;2.13;;;1.20;;
50789;SDS011;37287;47.554;7.844;2023-04-22T14:05:12;4.18;;;1.10;;
50789;SDS011;37287;47.554;7.844;2023-04-22T14:07:39;1.55;;;1.23;;
50789;SDS011;37287;47.554;7.844;2023-04-22T14:10:07;1.38;;;1.13;;
50789;SDS011;37287;47.554;7.844;2023-04-22T14:12:37;1.30;;;1.20;;
50789;SDS011;37287;47.554;7.844;2023-04-22T14:15:08;2.13;;;1.05;;
50789;SDS011;37287;47.554;7.844;2023-04-22T14:17:36;1.10;;;1.00;;
50789;SDS011;37287;47.554;7.844;2023-04-22T14:20:04;2.72;;;1.33;;
50789;SDS011;37287;47.554;7.844;2023-04-22T14:22:31;2.50;;;1.88;;
50789;SDS011;37287;47.554;7.844;2023-04-22T14:24:58;4.25;;;1.30;;
50789;SDS011;37287;47.554;7.844;2023-04-22T14:27:25;2.47;;;1.50;;
50789;SDS011;37287;47.554;7.844;2023-04-22T14:29:52;2.60;;;1.10;;
50789;SDS011;37287;47.554;7.844;2023-04-22T14:32:19;1.98;;;1.10;;
50789;SDS011;37287;47.554;7.844;2023-04-22T14:34:47;1.25;;;1.10;;
50789;SDS011;37287;47.554;7.844;2023-04-22T14:37:13;1.90;;;1.10;;
50789;SDS011;37287;47.554;7.844;2023-04-22T14:39:48;2.30;;;1.40;;
50789;SDS011;37287;47.554;7.844;2023-04-22T14:42:15;4.28;;;1.20;;
50789;SDS011;37287;47.554;7.844;2023-04-22T14:44:43;2.72;;;0.93;;
50789;SDS011;37287;47.554;7.844;2023-04-22T14:47:10;1.75;;;1.23;;
50789;SDS011;37287;47.554;7.844;2023-04-22T14:49:36;2.25;;;1.02;;
50789;SDS011;37287;47.554;7.844;2023-04-22T14:52:03;3.67;;;0.98;;
50789;SDS011;37287;47.554;7.844;2023-04-22T14:54:36;3.00;;;1.17;;
50789;SDS011;37287;47.554;7.844;2023-04-22T14:57:03;2.35;;;1.08;;
50789;SDS011;37287;47.554;7.844;2023-04-22T14:59:30;1.85;;;1.20;;
50789;SDS011;37287;47.554;7.844;2023-04-22T15:01:56;3.33;;;1.67;;
50789;SDS011;37287;47.554;7.844;2023-04-22T15:04:23;1.55;;;1.10;;
50789;SDS011;37287;47.554;7.844;2023-04-22T15:06:50;2.05;;;1.58;;